createdAt,value
2019-05-22T00:00:31.735Z,13.90
2019-05-22T00:03:02.238Z,13.90
2019-05-22T00:05:34.990Z,14.00
2019-05-22T00:08:05.339Z,13.90
2019-05-22T00:10:34.844Z,13.80
2019-05-22T00:13:06.163Z,13.80
2019-05-22T00:15:38.609Z,13.80
2019-05-22T00:18:07.856Z,13.90
2019-05-22T00:20:37.575Z,13.70
2019-05-22T00:23:11.355Z,13.70
2019-05-22T00:25:41.080Z,13.70
2019-05-22T00:28:10.622Z,13.60
2019-05-22T00:30:41.362Z,13.60
2019-05-22T00:33:11.458Z,13.70
2019-05-22T00:35:42.394Z,13.70
2019-05-22T00:38:12.007Z,13.60
2019-05-22T00:40:45.076Z,13.60
2019-05-22T00:43:17.265Z,13.60
2019-05-22T00:45:49.376Z,13.60
2019-05-22T00:48:21.633Z,13.50
2019-05-22T00:50:57.595Z,13.60
2019-05-22T00:53:44.803Z,13.60
2019-05-22T00:56:16.994Z,13.60
2019-05-22T00:59:07.705Z,13.40
2019-05-22T01:01:39.912Z,13.50
2019-05-22T01:04:10.383Z,13.60
2019-05-22T01:06:39.802Z,13.70
2019-05-22T01:09:10.783Z,13.70
2019-05-22T01:11:41.209Z,13.80
2019-05-22T01:14:10.140Z,13.80
2019-05-22T01:16:40.202Z,13.90
2019-05-22T01:19:10.956Z,13.90
2019-05-22T01:21:40.403Z,13.90
2019-05-22T01:24:11.087Z,13.80
2019-05-22T01:26:41.941Z,13.80
2019-05-22T01:29:11.674Z,13.70
2019-05-22T01:31:42.198Z,13.70
2019-05-22T01:34:12.888Z,13.80
2019-05-22T01:36:49.722Z,13.90
2019-05-22T01:39:25.875Z,13.90
2019-05-22T01:41:57.235Z,13.80
2019-05-22T01:44:27.703Z,13.70
2019-05-22T01:46:58.433Z,13.80
2019-05-22T01:49:28.238Z,13.90
2019-05-22T01:51:57.898Z,13.90
2019-05-22T01:54:27.875Z,13.90
2019-05-22T01:57:05.428Z,13.80
2019-05-22T01:59:52.812Z,13.90
2019-05-22T02:02:24.855Z,13.80
2019-05-22T02:04:54.557Z,13.90
2019-05-22T02:07:24.483Z,13.80
2019-05-22T02:09:55.196Z,13.80
2019-05-22T02:12:36.512Z,13.80
2019-05-22T02:15:07.595Z,13.70
2019-05-22T02:17:37.345Z,13.70
2019-05-22T02:20:08.887Z,13.50
2019-05-22T02:22:38.874Z,13.60
2019-05-22T02:25:08.450Z,13.40
2019-05-22T02:27:38.882Z,13.50
2019-05-22T02:30:09.540Z,13.50
2019-05-22T02:32:39.106Z,13.50
2019-05-22T02:35:09.435Z,13.20
2019-05-22T02:37:39.383Z,13.40
2019-05-22T02:40:20.267Z,13.50
2019-05-22T02:42:50.939Z,13.50
2019-05-22T02:45:21.914Z,13.50
2019-05-22T02:47:50.906Z,13.50
2019-05-22T02:50:20.270Z,13.40
2019-05-22T02:52:50.771Z,13.40
2019-05-22T02:55:20.027Z,13.30
2019-05-22T02:57:50.029Z,13.30
2019-05-22T03:00:19.881Z,13.20
2019-05-22T03:02:57.554Z,13.30
2019-05-22T03:05:26.902Z,13.30
2019-05-22T03:07:55.898Z,13.30
2019-05-22T03:10:25.477Z,13.40
2019-05-22T03:12:54.455Z,13.30
2019-05-22T03:15:24.618Z,13.40
2019-05-22T03:17:56.466Z,13.30
2019-05-22T03:20:26.568Z,13.40
2019-05-22T03:22:58.958Z,13.40
2019-05-22T03:25:30.182Z,13.50
2019-05-22T03:27:59.939Z,13.50
2019-05-22T03:30:46.555Z,13.50
2019-05-22T03:33:11.781Z,13.40
2019-05-22T03:35:47.470Z,13.30
2019-05-22T03:38:19.149Z,13.30
2019-05-22T03:40:51.090Z,13.30
2019-05-22T03:43:28.273Z,13.30
2019-05-22T03:45:59.194Z,13.20
2019-05-22T03:48:30.974Z,13.10
2019-05-22T03:51:08.874Z,13.10
2019-05-22T03:53:38.417Z,13.00
2019-05-22T03:56:07.275Z,12.90
2019-05-22T03:58:36.357Z,12.90
2019-05-22T04:01:06.726Z,12.90
2019-05-22T04:03:36.130Z,12.90
2019-05-22T04:06:06.520Z,12.90
2019-05-22T04:08:35.486Z,13.00
2019-05-22T04:11:05.665Z,13.00
2019-05-22T04:13:36.147Z,12.90
2019-05-22T04:16:06.791Z,12.90
2019-05-22T04:18:36.147Z,12.90
2019-05-22T04:21:05.382Z,12.90
2019-05-22T04:23:34.535Z,13.10
2019-05-22T04:26:05.292Z,13.30
2019-05-22T04:28:34.932Z,13.30
2019-05-22T04:31:14.791Z,13.20
2019-05-22T04:33:44.025Z,13.20
2019-05-22T04:36:13.879Z,13.20
2019-05-22T04:38:43.077Z,13.30
2019-05-22T04:41:11.851Z,13.30
2019-05-22T04:43:41.138Z,13.50
2019-05-22T04:46:11.449Z,13.70
2019-05-22T04:48:44.951Z,13.80
2019-05-22T04:51:26.611Z,13.80
2019-05-22T04:53:57.562Z,14.00
2019-05-22T04:56:27.731Z,14.20
2019-05-22T04:58:58.811Z,14.80
2019-05-22T05:01:28.070Z,15.50
2019-05-22T05:03:57.577Z,16.30
2019-05-22T05:06:26.673Z,17.50
2019-05-22T05:08:56.631Z,18.70
2019-05-22T05:11:25.829Z,19.50
2019-05-22T05:13:55.182Z,20.40
2019-05-22T05:16:24.099Z,20.90
2019-05-22T05:19:12.969Z,21.10
2019-05-22T05:21:41.770Z,21.30
2019-05-22T05:24:11.417Z,21.60
2019-05-22T05:26:40.410Z,21.50
2019-05-22T05:29:12.508Z,21.50
2019-05-22T05:31:42.559Z,21.70
2019-05-22T05:34:23.740Z,22.20
2019-05-22T05:36:53.333Z,22.50
2019-05-22T05:39:37.935Z,22.80
2019-05-22T05:42:06.809Z,22.80
2019-05-22T05:44:36.275Z,23.30
2019-05-22T05:47:06.947Z,23.80
2019-05-22T05:49:35.805Z,24.50
2019-05-22T05:52:06.383Z,25.00
2019-05-22T05:54:35.691Z,25.60
2019-05-22T05:57:36.952Z,26.60
2019-05-22T06:00:12.148Z,27.20
2019-05-22T06:02:55.520Z,27.70
2019-05-22T06:05:12.348Z,27.70
2019-05-22T06:07:41.430Z,26.60
2019-05-22T06:10:29.580Z,26.20
2019-05-22T06:12:59.210Z,25.70
2019-05-22T06:15:47.965Z,25.80
2019-05-22T06:18:31.984Z,26.00
2019-05-22T06:21:04.228Z,26.40
2019-05-22T06:23:42.543Z,26.50
2019-05-22T06:26:14.415Z,26.80
2019-05-22T06:28:44.211Z,27.30
2019-05-22T06:31:24.500Z,27.50
2019-05-22T06:33:53.983Z,27.00
2019-05-22T06:36:23.254Z,27.40
2019-05-22T06:38:59.621Z,27.70
2019-05-22T06:41:32.542Z,28.40
2019-05-22T06:44:23.732Z,29.30
2019-05-22T06:46:52.533Z,29.20
2019-05-22T06:49:36.820Z,29.30
2019-05-22T06:52:09.264Z,29.60
2019-05-22T06:54:38.951Z,29.40
2019-05-22T06:57:10.671Z,28.90
2019-05-22T06:59:39.961Z,28.70
2019-05-22T07:02:10.315Z,28.20
2019-05-22T07:04:39.909Z,28.70
2019-05-22T07:07:11.665Z,29.10
2019-05-22T07:09:41.320Z,29.60
2019-05-22T07:12:10.987Z,29.70
2019-05-22T07:14:45.674Z,29.70
2019-05-22T07:17:17.016Z,29.80
2019-05-22T07:19:47.266Z,29.90
2019-05-22T07:22:16.525Z,29.50
2019-05-22T07:24:45.927Z,29.00
2019-05-22T07:27:26.685Z,29.10
2019-05-22T07:29:56.475Z,28.90
2019-05-22T07:32:25.281Z,29.20
2019-05-22T07:34:54.114Z,29.50
2019-05-22T07:37:24.068Z,29.40
2019-05-22T07:39:53.701Z,30.00
2019-05-22T07:42:22.957Z,30.70
2019-05-22T07:44:51.801Z,31.00
2019-05-22T07:47:24.308Z,31.20
2019-05-22T07:49:53.237Z,31.20
2019-05-22T07:52:23.083Z,31.20
2019-05-22T07:54:54.317Z,31.70
2019-05-22T07:57:24.789Z,32.10
2019-05-22T07:59:53.606Z,32.00
2019-05-22T08:02:25.236Z,31.50
2019-05-22T08:04:54.609Z,31.30
2019-05-22T08:07:25.194Z,31.20
2019-05-22T08:09:54.119Z,30.50
2019-05-22T08:12:24.839Z,30.00
2019-05-22T08:14:55.020Z,30.70
2019-05-22T08:17:24.275Z,31.50
2019-05-22T08:19:53.146Z,32.10
2019-05-22T08:22:22.357Z,32.00
2019-05-22T08:24:51.542Z,31.50
2019-05-22T08:27:20.646Z,31.30
2019-05-22T08:29:50.099Z,31.20
2019-05-22T08:32:20.026Z,31.70
2019-05-22T08:34:49.195Z,31.80
2019-05-22T08:37:20.195Z,31.60
2019-05-22T08:39:49.754Z,32.00
2019-05-22T08:42:19.708Z,32.40
2019-05-22T08:44:48.835Z,32.70
2019-05-22T08:47:18.609Z,32.80
2019-05-22T08:49:48.146Z,33.50
2019-05-22T08:52:23.777Z,33.70
2019-05-22T08:54:51.717Z,33.80
2019-05-22T08:57:21.187Z,33.90
2019-05-22T08:59:49.981Z,34.10
2019-05-22T09:02:20.450Z,34.20
2019-05-22T09:04:49.385Z,34.40
2019-05-22T09:07:19.412Z,34.70
2019-05-22T09:09:48.488Z,34.60
2019-05-22T09:12:17.333Z,34.00
2019-05-22T09:14:46.234Z,32.60
2019-05-22T09:17:15.387Z,31.50
2019-05-22T09:19:45.029Z,31.20
2019-05-22T09:22:14.201Z,30.60
2019-05-22T09:24:43.369Z,30.20
2019-05-22T09:27:12.620Z,29.60
2019-05-22T09:29:41.504Z,28.90
2019-05-22T09:32:10.411Z,29.30
2019-05-22T09:34:39.698Z,29.90
2019-05-22T09:37:09.042Z,30.90
2019-05-22T09:39:37.939Z,30.70
2019-05-22T09:42:06.822Z,31.90
2019-05-22T09:44:35.826Z,33.00
2019-05-22T09:47:05.390Z,33.80
2019-05-22T09:49:34.568Z,35.20
2019-05-22T09:52:05.405Z,35.60
2019-05-22T09:54:35.523Z,37.20
2019-05-22T09:57:05.319Z,37.80
2019-05-22T09:59:34.254Z,37.80
2019-05-22T10:02:05.589Z,37.90
2019-05-22T10:04:34.789Z,37.90
2019-05-22T10:07:03.645Z,37.60
2019-05-22T10:09:32.541Z,37.40
2019-05-22T10:12:02.980Z,37.80
2019-05-22T10:14:32.049Z,38.40
2019-05-22T10:17:01.293Z,38.90
2019-05-22T10:19:30.736Z,39.30
2019-05-22T10:21:59.591Z,39.50
2019-05-22T10:24:28.709Z,39.60
2019-05-22T10:26:57.759Z,39.40
2019-05-22T10:29:27.387Z,40.10
2019-05-22T10:31:56.327Z,39.90
2019-05-22T10:34:25.892Z,40.60
2019-05-22T10:36:54.808Z,41.10
2019-05-22T10:39:24.912Z,40.80
2019-05-22T10:41:53.891Z,39.80
2019-05-22T10:44:24.304Z,39.40
2019-05-22T10:46:53.143Z,39.70
2019-05-22T10:49:22.508Z,40.80
2019-05-22T10:51:51.613Z,41.10
2019-05-22T10:54:20.559Z,40.30
2019-05-22T10:56:49.336Z,39.60
2019-05-22T10:59:18.149Z,39.60
2019-05-22T11:01:47.182Z,40.90
2019-05-22T11:04:19.545Z,42.30
2019-05-22T11:06:49.021Z,42.30
2019-05-22T11:09:18.169Z,41.10
2019-05-22T11:11:46.934Z,42.00
2019-05-22T11:14:16.202Z,43.00
2019-05-22T11:16:49.930Z,43.40
2019-05-22T11:19:18.907Z,44.10
2019-05-22T11:21:47.789Z,42.00
2019-05-22T11:24:16.704Z,41.10
2019-05-22T11:26:47.073Z,40.20
2019-05-22T11:29:16.815Z,38.90
2019-05-22T11:31:45.717Z,38.40
2019-05-22T11:34:14.788Z,37.90
2019-05-22T11:36:43.713Z,36.00
2019-05-22T11:39:14.815Z,34.60
2019-05-22T11:41:43.906Z,33.80
2019-05-22T11:44:13.254Z,34.70
2019-05-22T11:46:42.230Z,34.50
2019-05-22T11:49:11.396Z,33.50
2019-05-22T11:51:40.209Z,33.00
2019-05-22T11:54:10.051Z,35.10
2019-05-22T11:56:39.132Z,36.80
2019-05-22T11:59:08.004Z,37.00
2019-05-22T12:01:36.827Z,38.00
2019-05-22T12:04:09.261Z,39.20
2019-05-22T12:06:38.711Z,40.10
2019-05-22T12:09:10.093Z,40.80
2019-05-22T12:11:43.014Z,40.10
2019-05-22T12:14:10.536Z,39.50
2019-05-22T12:16:41.226Z,39.10
2019-05-22T12:19:10.558Z,38.20
2019-05-22T12:21:39.937Z,38.00
2019-05-22T12:24:26.000Z,38.60
2019-05-22T12:26:40.193Z,38.00
2019-05-22T12:29:09.156Z,37.90
2019-05-22T12:31:38.705Z,37.60
2019-05-22T12:34:07.977Z,38.30
2019-05-22T12:36:36.857Z,38.60
2019-05-22T12:39:10.740Z,38.80
2019-05-22T12:41:40.983Z,39.00
2019-05-22T12:44:11.256Z,37.00
2019-05-22T12:46:40.825Z,34.80
2019-05-22T12:49:12.345Z,33.40
2019-05-22T12:51:41.576Z,33.10
2019-05-22T12:54:10.439Z,34.90
2019-05-22T12:56:39.284Z,35.60
2019-05-22T12:59:08.675Z,36.10
2019-05-22T13:01:38.825Z,35.50
2019-05-22T13:04:09.102Z,34.20
2019-05-22T13:06:39.394Z,34.40
2019-05-22T13:09:10.847Z,33.20
2019-05-22T13:11:40.497Z,32.00
2019-05-22T13:14:09.396Z,31.10
2019-05-22T13:16:39.153Z,30.60
2019-05-22T13:19:08.525Z,30.70
2019-05-22T13:21:38.151Z,32.00
2019-05-22T13:24:09.983Z,33.00
2019-05-22T13:26:39.612Z,33.30
2019-05-22T13:29:08.910Z,34.20
2019-05-22T13:31:38.438Z,34.60
2019-05-22T13:34:07.372Z,34.40
2019-05-22T13:36:36.327Z,34.40
2019-05-22T13:39:08.550Z,34.60
2019-05-22T13:41:37.815Z,35.10
2019-05-22T13:44:06.604Z,34.50
2019-05-22T13:46:36.178Z,35.20
2019-05-22T13:49:05.539Z,35.00
2019-05-22T13:51:34.511Z,35.20
2019-05-22T13:54:04.240Z,34.10
2019-05-22T13:56:33.856Z,33.80
2019-05-22T13:59:03.343Z,33.60
2019-05-22T14:01:32.216Z,33.20
2019-05-22T14:04:01.122Z,32.10
2019-05-22T14:06:29.953Z,31.00
2019-05-22T14:09:00.679Z,30.00
2019-05-22T14:11:29.551Z,29.20
2019-05-22T14:13:59.003Z,28.60
2019-05-22T14:16:28.003Z,28.40
2019-05-22T14:18:56.853Z,28.30
2019-05-22T14:21:25.829Z,28.00
2019-05-22T14:23:54.681Z,27.30
2019-05-22T14:26:23.399Z,27.10
2019-05-22T14:28:52.491Z,27.00
2019-05-22T14:31:21.360Z,26.70
2019-05-22T14:33:50.632Z,26.40
2019-05-22T14:36:20.754Z,26.20
2019-05-22T14:38:49.654Z,26.20
2019-05-22T14:41:18.407Z,26.00
2019-05-22T14:43:47.380Z,25.90
2019-05-22T14:46:16.134Z,25.80
2019-05-22T14:48:45.026Z,25.70
2019-05-22T14:51:14.782Z,25.50
2019-05-22T14:53:44.209Z,25.30
2019-05-22T14:56:13.372Z,25.30
2019-05-22T14:58:43.808Z,25.00
2019-05-22T15:01:13.003Z,25.00
2019-05-22T15:03:42.366Z,25.00
2019-05-22T15:06:11.553Z,24.80
2019-05-22T15:08:40.544Z,24.70
2019-05-22T15:11:10.364Z,24.70
2019-05-22T15:13:39.939Z,24.90
2019-05-22T15:16:08.819Z,24.80
2019-05-22T15:18:37.689Z,24.80
2019-05-22T15:21:07.852Z,25.10
2019-05-22T15:23:37.383Z,25.10
2019-05-22T15:26:06.278Z,25.30
2019-05-22T15:28:35.550Z,25.30
2019-05-22T15:31:05.017Z,25.40
2019-05-22T15:33:35.048Z,25.40
2019-05-22T15:36:06.861Z,25.50
2019-05-22T15:38:38.871Z,25.40
2019-05-22T15:41:09.695Z,25.60
2019-05-22T15:43:41.105Z,25.40
2019-05-22T15:46:12.523Z,25.40
2019-05-22T15:48:43.107Z,25.40
2019-05-22T15:51:16.746Z,25.20
2019-05-22T15:53:47.110Z,25.20
2019-05-22T15:56:15.972Z,25.10
2019-05-22T15:58:49.028Z,24.80
2019-05-22T16:01:21.921Z,24.70
2019-05-22T16:03:53.611Z,24.60
2019-05-22T16:06:24.349Z,24.70
2019-05-22T16:08:55.960Z,24.90
2019-05-22T16:11:26.589Z,24.90
2019-05-22T16:13:58.153Z,24.50
2019-05-22T16:16:28.682Z,24.40
2019-05-22T16:19:00.792Z,24.40
2019-05-22T16:21:31.236Z,24.60
2019-05-22T16:24:00.536Z,24.40
2019-05-22T16:26:30.040Z,24.40
2019-05-22T16:29:00.965Z,24.30
2019-05-22T16:31:32.244Z,24.00
2019-05-22T16:34:01.316Z,23.80
2019-05-22T16:36:31.107Z,23.70
2019-05-22T16:39:00.732Z,23.70
2019-05-22T16:41:30.213Z,23.70
2019-05-22T16:43:59.636Z,23.70
2019-05-22T16:46:29.364Z,23.70
2019-05-22T16:48:58.902Z,24.00
2019-05-22T16:51:29.019Z,23.70
2019-05-22T16:54:04.673Z,23.70
2019-05-22T16:56:35.450Z,23.70
2019-05-22T16:59:06.033Z,23.70
2019-05-22T17:01:56.282Z,23.20
2019-05-22T17:04:07.693Z,23.10
2019-05-22T17:06:37.544Z,23.30
2019-05-22T17:09:09.710Z,23.30
2019-05-22T17:11:39.480Z,23.50
2019-05-22T17:14:11.417Z,23.50
2019-05-22T17:16:41.483Z,23.20
2019-05-22T17:19:25.677Z,23.20
2019-05-22T17:21:42.248Z,23.00
2019-05-22T17:24:13.183Z,22.90
2019-05-22T17:26:42.506Z,22.80
2019-05-22T17:29:13.130Z,22.90
2019-05-22T17:31:43.888Z,22.90
2019-05-22T17:34:31.987Z,22.90
2019-05-22T17:37:02.470Z,22.80
2019-05-22T17:39:34.723Z,22.90
2019-05-22T17:42:04.417Z,22.90
2019-05-22T17:44:36.456Z,22.80
2019-05-22T17:47:06.849Z,22.60
2019-05-22T17:49:35.904Z,22.40
2019-05-22T17:52:05.644Z,22.50
2019-05-22T17:54:34.515Z,22.30
2019-05-22T17:57:06.748Z,22.30
2019-05-22T17:59:35.915Z,22.20
2019-05-22T18:02:06.365Z,22.20
2019-05-22T18:04:35.256Z,22.10
2019-05-22T18:07:05.792Z,22.00
2019-05-22T18:09:35.324Z,22.00
2019-05-22T18:12:05.723Z,22.00
2019-05-22T18:14:36.204Z,22.00
2019-05-22T18:17:05.951Z,21.90
2019-05-22T18:19:36.031Z,22.00
2019-05-22T18:22:06.480Z,22.00
2019-05-22T18:24:35.333Z,21.90
2019-05-22T18:27:04.455Z,21.80
2019-05-22T18:29:33.535Z,21.70
2019-05-22T18:32:02.647Z,21.70
2019-05-22T18:34:34.672Z,21.70
2019-05-22T18:37:03.547Z,21.60
2019-05-22T18:39:33.285Z,21.40
2019-05-22T18:42:02.192Z,21.30
2019-05-22T18:44:30.979Z,21.20
2019-05-22T18:47:00.085Z,21.20
2019-05-22T18:49:29.006Z,21.00
2019-05-22T18:51:57.745Z,21.00
2019-05-22T18:54:26.620Z,20.90
2019-05-22T18:56:55.527Z,20.90
2019-05-22T18:59:24.412Z,20.80
2019-05-22T19:01:53.547Z,20.90
2019-05-22T19:04:22.540Z,20.80
2019-05-22T19:06:51.586Z,20.70
2019-05-22T19:09:20.779Z,20.50
2019-05-22T19:11:49.645Z,20.20
2019-05-22T19:14:19.034Z,20.10
2019-05-22T19:16:47.966Z,20.20
2019-05-22T19:19:20.117Z,20.20
2019-05-22T19:21:49.391Z,20.20
2019-05-22T19:24:18.548Z,20.10
2019-05-22T19:26:47.871Z,20.00
2019-05-22T19:29:16.774Z,20.00
2019-05-22T19:31:45.560Z,20.00
2019-05-22T19:34:14.403Z,19.80
2019-05-22T19:36:43.345Z,19.60
2019-05-22T19:39:22.572Z,19.60
2019-05-22T19:42:01.933Z,19.60
2019-05-22T19:44:22.715Z,19.60
2019-05-22T19:46:51.960Z,19.60
2019-05-22T19:49:20.881Z,19.70
2019-05-22T19:51:51.375Z,19.70
2019-05-22T19:54:20.234Z,19.60
2019-05-22T19:56:49.178Z,19.70
2019-05-22T19:59:19.056Z,19.60
2019-05-22T20:01:48.033Z,19.60
2019-05-22T20:04:16.960Z,19.50
2019-05-22T20:06:45.786Z,19.40
2019-05-22T20:09:16.296Z,19.20
2019-05-22T20:11:45.703Z,19.00
2019-05-22T20:14:14.970Z,19.00
2019-05-22T20:16:46.634Z,18.90
2019-05-22T20:19:15.514Z,18.80
2019-05-22T20:21:44.901Z,18.80
2019-05-22T20:24:14.161Z,18.80
2019-05-22T20:26:43.181Z,18.80
2019-05-22T20:29:14.559Z,18.90
2019-05-22T20:31:43.429Z,18.90
2019-05-22T20:34:14.196Z,18.70
2019-05-22T20:36:43.272Z,18.70
2019-05-22T20:39:13.825Z,18.70
2019-05-22T20:41:43.076Z,18.80
2019-05-22T20:44:13.946Z,18.70
2019-05-22T20:46:44.158Z,18.70
2019-05-22T20:49:14.391Z,18.80
2019-05-22T20:51:44.059Z,18.90
2019-05-22T20:54:13.035Z,18.80
2019-05-22T20:56:44.567Z,18.80
2019-05-22T20:59:14.213Z,18.90
2019-05-22T21:01:42.978Z,19.00
2019-05-22T21:04:13.855Z,19.00
2019-05-22T21:06:48.634Z,19.00
2019-05-22T21:09:20.645Z,19.00
2019-05-22T21:11:53.655Z,19.10
2019-05-22T21:14:22.956Z,19.10
2019-05-22T21:16:53.589Z,19.00
2019-05-22T21:19:23.847Z,18.90
2019-05-22T21:21:58.072Z,19.00
2019-05-22T21:24:27.944Z,19.00
2019-05-22T21:26:57.274Z,19.00
2019-05-22T21:29:27.758Z,19.00
2019-05-22T21:31:56.590Z,19.10
2019-05-22T21:34:26.469Z,19.20
2019-05-22T21:37:05.936Z,19.00
2019-05-22T21:39:35.413Z,19.00
2019-05-22T21:42:04.987Z,19.10
2019-05-22T21:44:34.695Z,19.00
2019-05-22T21:47:05.365Z,19.10
2019-05-22T21:49:38.316Z,19.10
2019-05-22T21:52:06.905Z,19.00
2019-05-22T21:54:35.736Z,18.90
2019-05-22T21:57:05.518Z,18.80
2019-05-22T21:59:34.519Z,18.70
2019-05-22T22:02:05.246Z,18.80
2019-05-22T22:04:35.129Z,18.80
2019-05-22T22:07:05.305Z,18.60
2019-05-22T22:09:34.113Z,18.60
2019-05-22T22:12:02.961Z,18.70
2019-05-22T22:14:32.432Z,18.60
2019-05-22T22:17:02.606Z,18.50
2019-05-22T22:19:32.406Z,18.50
2019-05-22T22:22:02.781Z,18.50
2019-05-22T22:24:32.273Z,18.50
2019-05-22T22:27:01.370Z,18.50
2019-05-22T22:29:30.218Z,18.50
2019-05-22T22:31:59.239Z,18.50
2019-05-22T22:34:34.232Z,18.50
2019-05-22T22:37:04.705Z,18.40
2019-05-22T22:39:34.794Z,18.40
2019-05-22T22:42:05.775Z,18.40
2019-05-22T22:44:37.077Z,18.40
2019-05-22T22:47:11.247Z,18.40
2019-05-22T22:49:40.542Z,18.40
2019-05-22T22:52:12.284Z,18.40
2019-05-22T22:54:42.144Z,18.20
2019-05-22T22:57:11.415Z,18.20
2019-05-22T22:59:40.415Z,18.00
2019-05-22T23:02:12.774Z,18.10
2019-05-22T23:04:43.002Z,18.10
2019-05-22T23:07:12.004Z,18.10
2019-05-22T23:09:43.044Z,18.00
2019-05-22T23:12:12.822Z,17.90
2019-05-22T23:14:44.745Z,17.80
2019-05-22T23:17:13.739Z,17.70
2019-05-22T23:19:43.218Z,17.60
2019-05-22T23:22:12.437Z,17.60
2019-05-22T23:24:43.738Z,17.50
2019-05-22T23:27:13.773Z,17.40
2019-05-22T23:29:43.031Z,17.40
2019-05-22T23:32:12.559Z,17.50
2019-05-22T23:34:41.731Z,17.50
2019-05-22T23:37:13.277Z,17.40
2019-05-22T23:39:42.456Z,17.30
2019-05-22T23:42:14.354Z,17.20
2019-05-22T23:44:44.304Z,17.10
2019-05-22T23:47:14.244Z,16.90
2019-05-22T23:49:43.757Z,16.90
2019-05-22T23:52:14.156Z,16.90
2019-05-22T23:54:44.730Z,16.80
2019-05-22T23:57:15.223Z,16.80
2019-05-22T23:59:46.376Z,16.90
